PDA

View Full Version : Ontario Chapter Flying



PeterL
12-31-2011, 09:43 AM
Our local members can post where to fly here.

Peter

PeterL
12-31-2011, 09:48 AM
Trying to go flying today for the last day of the year, however the weather is:

BORDEN/ON

METAR CYBN 311300Z AUTO 02002KT 3/8SM OVC001 M01/M01 A2975 RMK
SLP086=
SPECI CYBN 311245Z AUTO 02003KT 3/8SM -UP OVC001 M01/M01 A2974=
SPECI CYBN 311237Z AUTO 03002KT 1/8SM -UP VV001 M01/M01 A2974=
METAR CYBN 311200Z AUTO 00000KT 1/8SM VV001 M01/M01 A2973 RMK SLP077=

I could go, BUT, it would be messy, plus my de-ice boots don't work........

Happy New Year everyone.

Peter

PeterL
03-15-2012, 08:45 AM
Planning for our meeting for April 28th, rain day 29th at Peterborough Airport CYPQ. At Ron's new hangar.

Time: 11:00

PL

PeterL
05-28-2012, 01:49 PM
June 3, Smiths Falls, ON (CYSH): COPA Flight 100. The Smiths Falls Annual Fly-In Breakfast will be held this year on June 3rd, 2012! Fly in, drive in, rain or shine. For more information, please contact Andrew Boyd at acboyd@gmail.com or 613-283-1148.